Time;durP1;ratioP1;P1;durP2;ratioP2;P2;SDS_P1;SDS_P2;PMS_P1;PMS_P2;Temp;Humidity;BMP_temperature;BMP_pressure;BME280_temperature;BME280_humidity;BME280_pressure;Samples;Min_cycle;Max_cycle;Signal;HPM_P1;HPM_P2
2023/05/14 00:00:22;;;;;;;0.40;0.40;;;;;;;11.73;50.41;99763.09;4923494;29;20170;-86
2023/05/14 00:02:49;;;;;;;0.40;0.40;;;;;;;11.74;50.54;99767.44;4924683;29;20427;-86
2023/05/14 00:05:16;;;;;;;0.40;0.40;;;;;;;11.65;50.85;99765.09;4925358;29;20052;-86
2023/05/14 00:07:44;;;;;;;0.40;0.40;;;;;;;11.54;51.19;99763.16;4924750;29;20060;-86
2023/05/14 00:10:11;;;;;;;0.40;0.40;;;;;;;11.58;51.17;99767.06;4925040;29;20431;-86
2023/05/14 00:12:38;;;;;;;0.40;0.40;;;;;;;11.51;51.52;99769.06;4936856;29;20052;-85
2023/05/14 00:15:05;;;;;;;0.40;0.40;;;;;;;11.43;51.69;99772.91;4924560;29;20142;-87
2023/05/14 00:17:33;;;;;;;0.40;0.40;;;;;;;11.38;51.95;99767.38;4948239;29;20513;-86
2023/05/14 00:20:00;;;;;;;0.40;0.40;;;;;;;11.40;51.88;99777.97;4932768;29;20075;-87
2023/05/14 00:22:30;;;;;;;0.40;0.40;;;;;;;11.37;52.00;99775.69;4924392;29;20540;-86
2023/05/14 00:24:57;;;;;;;0.40;0.40;;;;;;;11.28;52.09;99772.53;4927990;29;20135;-84
2023/05/14 00:27:25;;;;;;;0.40;0.40;;;;;;;11.15;52.61;99770.84;4913332;29;20052;-85
2023/05/14 00:29:52;;;;;;;0.40;0.40;;;;;;;11.09;53.15;99766.38;4913378;29;20099;-85
2023/05/14 00:32:19;;;;;;;0.40;0.40;;;;;;;11.04;53.32;99774.31;4912248;29;20059;-85
2023/05/14 00:34:46;;;;;;;0.40;0.40;;;;;;;10.95;53.30;99776.50;4913607;29;20052;-84
2023/05/14 00:37:13;;;;;;;0.40;0.40;;;;;;;10.90;53.61;99768.25;4916963;29;20056;-84
2023/05/14 00:39:40;;;;;;;0.40;0.40;;;;;;;10.89;53.95;99779.28;4936451;29;20051;-85
2023/05/14 00:42:07;;;;;;;0.40;0.40;;;;;;;10.82;54.20;99774.00;4935111;29;20132;-85
2023/05/14 00:44:35;;;;;;;0.40;0.40;;;;;;;10.76;54.53;99778.44;4935344;29;20079;-84
2023/05/14 00:47:02;;;;;;;0.40;0.40;;;;;;;10.69;54.72;99784.97;4935085;29;20422;-85
2023/05/14 00:49:29;;;;;;;0.40;0.40;;;;;;;10.60;54.86;99782.53;4935147;29;20047;-85
2023/05/14 00:51:59;;;;;;;0.50;0.50;;;;;;;10.58;55.19;99781.97;4935421;29;20060;-85
2023/05/14 00:54:28;;;;;;;0.47;0.47;;;;;;;10.57;55.31;99784.88;4936285;29;20098;-85
2023/05/14 00:56:56;;;;;;;0.50;0.50;;;;;;;10.54;55.56;99790.72;4934705;29;20119;-84
2023/05/14 00:59:23;;;;;;;0.50;0.50;;;;;;;10.47;55.66;99785.41;4950652;28;20506;-84
2023/05/14 01:01:50;;;;;;;0.40;0.40;;;;;;;10.39;55.77;99785.69;4950567;29;20122;-85
2023/05/14 01:04:17;;;;;;;0.40;0.40;;;;;;;10.28;55.89;99776.47;4935671;29;20054;-84
2023/05/14 01:07:03;;;;;;;0.45;0.45;;;;;;;10.32;56.18;99791.16;4944496;29;20102;-84
2023/05/14 01:09:33;;;;;;;0.40;0.40;;;;;;;10.25;56.33;99793.06;4954250;29;20051;-82
2023/05/14 01:12:17;;;;;;;0.40;0.40;;;;;;;10.23;56.70;99788.94;4954984;28;20054;-84
2023/05/14 01:14:48;;;;;;;0.43;0.43;;;;;;;10.20;56.67;99788.34;4939047;29;20109;-84
2023/05/14 01:17:22;;;;;;;0.50;0.50;;;;;;;10.18;56.78;99789.63;4955146;28;20047;-83
2023/05/14 01:19:50;;;;;;;0.50;0.50;;;;;;;10.16;56.85;99795.22;4953728;29;20055;-85
2023/05/14 01:22:18;;;;;;;0.50;0.50;;;;;;;10.10;56.84;99795.28;4963605;28;20048;-84
2023/05/14 01:24:45;;;;;;;0.50;0.50;;;;;;;10.14;57.22;99801.91;4936057;29;20439;-83
2023/05/14 01:27:36;;;;;;;0.50;0.50;;;;;;;10.14;57.42;99796.50;4934718;29;20138;-85
2023/05/14 01:30:13;;;;;;;0.50;0.50;;;;;;;10.07;57.67;99803.81;4934053;29;20075;-84
2023/05/14 01:32:42;;;;;;;0.40;0.40;;;;;;;10.01;57.58;99802.84;4935586;29;20065;-84
2023/05/14 01:35:09;;;;;;;0.40;0.40;;;;;;;10.07;57.68;99804.66;4934127;29;20051;-84
2023/05/14 01:37:37;;;;;;;0.40;0.40;;;;;;;10.09;57.82;99804.44;4934709;29;20835;-83
2023/05/14 01:40:06;;;;;;;0.50;0.50;;;;;;;10.12;57.88;99814.78;4922273;29;20418;-85
2023/05/14 01:42:33;;;;;;;0.40;0.40;;;;;;;10.12;57.87;99809.38;4923375;29;20143;-84
2023/05/14 01:45:01;;;;;;;0.50;0.50;;;;;;;10.05;58.05;99808.63;4936231;29;20044;-83
2023/05/14 01:47:30;;;;;;;0.50;0.50;;;;;;;10.04;58.13;99806.97;4954911;29;20147;-84
2023/05/14 01:49:58;;;;;;;0.50;0.50;;;;;;;10.05;58.43;99812.16;4943801;29;20094;-84
2023/05/14 01:52:25;;;;;;;0.40;0.40;;;;;;;10.03;58.39;99816.13;4965940;29;20099;-84
2023/05/14 01:54:52;;;;;;;0.50;0.50;;;;;;;9.93;58.49;99814.75;4951709;29;20061;-83
2023/05/14 01:57:20;;;;;;;0.45;0.45;;;;;;;9.84;58.72;99788.28;4949522;29;20103;-84
2023/05/14 01:59:47;;;;;;;0.50;0.50;;;;;;;9.87;58.84;99794.03;4934080;29;20047;-85
2023/05/14 02:02:14;;;;;;;0.40;0.40;;;;;;;9.93;59.15;99803.94;4933694;29;20522;-86
2023/05/14 02:04:41;;;;;;;0.50;0.50;;;;;;;10.01;58.92;99812.81;4918070;29;20074;-85
2023/05/14 02:07:09;;;;;;;0.50;0.50;;;;;;;9.92;59.22;99812.25;4930285;29;20056;-84
2023/05/14 02:09:37;;;;;;;0.40;0.40;;;;;;;9.89;59.50;99808.13;4914667;29;20070;-84
2023/05/14 02:12:05;;;;;;;0.50;0.50;;;;;;;9.87;59.41;99809.38;4930243;29;20087;-86
2023/05/14 02:14:32;;;;;;;0.50;0.50;;;;;;;9.94;59.43;99813.69;4930870;29;20044;-85
2023/05/14 02:16:59;;;;;;;0.40;0.40;;;;;;;9.98;59.32;99831.09;4915278;29;20044;-85
2023/05/14 02:19:27;;;;;;;0.47;0.47;;;;;;;10.07;59.37;99822.72;4915879;29;20056;-85
2023/05/14 02:21:54;;;;;;;0.50;0.50;;;;;;;10.10;59.16;99814.16;4905222;29;20047;-84
2023/05/14 02:24:21;;;;;;;0.50;0.50;;;;;;;10.08;59.33;99817.09;4954239;29;20148;-84
2023/05/14 02:26:48;;;;;;;0.50;0.50;;;;;;;10.11;59.19;99816.66;4966891;29;20058;-84
2023/05/14 02:29:16;;;;;;;0.50;0.50;;;;;;;10.24;58.95;99826.50;4973475;28;20055;-85
2023/05/14 02:31:43;;;;;;;0.50;0.50;;;;;;;10.26;58.76;99815.50;4954166;28;20154;-84
2023/05/14 02:34:10;;;;;;;0.50;0.50;;;;;;;10.34;58.73;99826.03;4952354;29;20050;-83
2023/05/14 02:36:37;;;;;;;0.50;0.50;;;;;;;10.43;58.68;99835.47;4953390;28;20078;-84
2023/05/14 02:39:04;;;;;;;0.50;0.50;;;;;;;10.41;58.65;99827.59;4968111;28;20047;-85
2023/05/14 02:41:31;;;;;;;0.50;0.50;;;;;;;10.45;58.79;99835.25;4953869;28;20051;-84
2023/05/14 02:43:58;;;;;;;0.50;0.50;;;;;;;10.49;58.89;99837.28;4953270;28;20138;-85
2023/05/14 02:46:25;;;;;;;0.50;0.50;;;;;;;10.51;58.92;99848.69;4968314;28;20142;-83
2023/05/14 02:48:54;;;;;;;0.50;0.50;;;;;;;10.54;58.45;99839.31;4952060;29;20047;-85
2023/05/14 02:51:21;;;;;;;0.50;0.50;;;;;;;10.69;58.04;99839.75;4950551;29;20051;-85
2023/05/14 02:53:48;;;;;;;0.40;0.40;;;;;;;10.76;57.89;99843.22;4933914;29;20055;-84
2023/05/14 02:56:16;;;;;;;0.50;0.50;;;;;;;10.79;57.70;99840.06;4934199;29;20060;-84
2023/05/14 02:58:42;;;;;;;0.45;0.45;;;;;;;10.83;57.65;99833.16;4932936;29;20047;-84
2023/05/14 03:01:10;;;;;;;0.40;0.40;;;;;;;10.96;57.55;99844.84;4932397;29;20055;-84
2023/05/14 03:03:37;;;;;;;0.40;0.40;;;;;;;10.98;57.11;99843.56;4929321;29;20056;-83
2023/05/14 03:06:05;;;;;;;0.50;0.50;;;;;;;11.09;56.80;99850.09;4920730;29;20059;-84
2023/05/14 03:08:32;;;;;;;0.43;0.43;;;;;;;11.13;56.96;99843.19;4956028;28;20059;-86
2023/05/14 03:11:00;;;;;;;0.50;0.50;;;;;;;11.20;56.60;99846.63;4946997;29;20055;-85
2023/05/14 03:13:27;;;;;;;0.50;0.50;;;;;;;11.22;56.44;99855.31;4951553;29;20063;-84
2023/05/14 03:15:55;;;;;;;0.50;0.50;;;;;;;11.23;56.14;99845.34;4967546;28;20059;-85
2023/05/14 03:18:22;;;;;;;0.50;0.50;;;;;;;11.30;56.25;99851.47;4946491;29;20063;-85
2023/05/14 03:20:49;;;;;;;0.50;0.50;;;;;;;11.39;55.90;99847.38;4947866;29;20151;-84
2023/05/14 03:23:16;;;;;;;0.40;0.40;;;;;;;11.48;55.67;99853.31;4933904;29;20063;-85
2023/05/14 03:25:43;;;;;;;0.50;0.50;;;;;;;11.49;55.64;99860.34;4932421;29;20562;-83
2023/05/14 03:28:11;;;;;;;0.50;0.50;;;;;;;11.51;55.62;99863.66;4933586;29;20521;-84
2023/05/14 03:30:38;;;;;;;0.50;0.50;;;;;;;11.53;55.22;99852.63;4933587;29;20414;-84
2023/05/14 03:33:12;;;;;;;0.50;0.50;;;;;;;11.58;55.06;99858.16;4932257;29;20063;-85
2023/05/14 03:35:39;;;;;;;0.50;0.50;;;;;;;11.57;55.18;99860.06;4932629;29;20403;-84
2023/05/14 03:38:06;;;;;;;0.50;0.50;;;;;;;11.69;54.92;99865.47;4933052;29;20047;-84
2023/05/14 03:40:33;;;;;;;0.50;0.50;;;;;;;11.68;54.72;99859.25;4933286;29;20483;-84
2023/05/14 03:43:00;;;;;;;0.50;0.50;;;;;;;11.75;54.93;99867.28;4916276;29;20044;-85
2023/05/14 03:45:29;;;;;;;0.50;0.50;;;;;;;11.75;54.91;99845.66;4916177;29;20047;-85
2023/05/14 03:48:01;;;;;;;0.50;0.50;;;;;;;11.92;54.69;99864.75;4928235;29;20110;-84
2023/05/14 03:50:29;;;;;;;0.50;0.50;;;;;;;11.96;54.57;99865.13;4928366;29;20432;-84
2023/05/14 03:52:57;;;;;;;0.45;0.45;;;;;;;12.02;54.69;99865.00;4881622;29;20499;-84
2023/05/14 03:55:24;;;;;;;0.50;0.50;;;;;;;12.05;54.44;99872.66;4928798;29;20072;-86
2023/05/14 03:57:51;;;;;;;0.50;0.50;;;;;;;12.06;54.45;99868.91;4913694;29;20079;-85
2023/05/14 04:00:18;;;;;;;0.50;0.50;;;;;;;12.18;54.29;99871.63;4928809;29;20396;-84
2023/05/14 04:02:45;;;;;;;0.50;0.50;;;;;;;12.27;53.94;99870.19;4918498;29;20051;-84
2023/05/14 04:05:14;;;;;;;0.40;0.40;;;;;;;12.27;53.96;99872.09;4947779;29;20082;-84
2023/05/14 04:07:41;;;;;;;0.40;0.40;;;;;;;12.29;53.69;99870.78;4947440;29;20051;-84
2023/05/14 04:10:09;;;;;;;0.45;0.45;;;;;;;12.36;53.70;99865.28;4950432;29;20058;-83
2023/05/14 04:12:36;;;;;;;0.45;0.45;;;;;;;12.49;54.16;99878.56;4951363;28;20059;-83
2023/05/14 04:15:08;;;;;;;0.50;0.50;;;;;;;12.64;53.69;99886.22;4910615;29;20889;-82
2023/05/14 04:17:35;;;;;;;0.50;0.50;;;;;;;12.66;53.16;99878.69;4947537;29;20399;-83
2023/05/14 04:20:03;;;;;;;0.45;0.45;;;;;;;12.69;53.14;99874.69;4932369;29;20055;-85
2023/05/14 04:22:31;;;;;;;0.45;0.45;;;;;;;12.68;52.97;99870.31;4932526;29;20503;-85
2023/05/14 04:24:58;;;;;;;0.40;0.40;;;;;;;12.78;53.00;99882.19;4915865;29;20071;-84
2023/05/14 04:27:25;;;;;;;0.40;0.40;;;;;;;12.80;52.94;99887.38;4931804;29;20079;-84
2023/05/14 04:29:52;;;;;;;0.40;0.40;;;;;;;12.75;52.95;99879.13;4931067;29;20055;-84
2023/05/14 04:32:22;;;;;;;0.50;0.50;;;;;;;12.94;52.54;99893.38;4931133;29;20052;-86
2023/05/14 04:45:15;;;;;;;0.50;0.50;;;;;;;12.90;51.33;99884.88;5200600;23;20059;-84
2023/05/14 04:47:43;;;;;;;0.50;0.50;;;;;;;12.99;51.45;99897.00;4969810;28;20057;-84
2023/05/14 04:50:13;;;;;;;0.50;0.50;;;;;;;13.09;50.94;99887.44;4971216;28;20051;-84
2023/05/14 04:52:40;;;;;;;0.40;0.40;;;;;;;13.15;50.88;99894.63;4970132;28;20078;-84
2023/05/14 04:55:08;;;;;;;0.50;0.50;;;;;;;13.23;50.48;99892.34;4971984;28;20506;-83
2023/05/14 04:57:38;;;;;;;0.40;0.40;;;;;;;13.27;50.21;99891.88;4974948;28;20053;-86
2023/05/14 05:00:10;;;;;;;0.40;0.40;;;;;;;13.40;50.23;99878.88;4946452;28;20062;-84
2023/05/14 05:02:37;;;;;;;0.40;0.40;;;;;;;13.56;50.00;99896.28;4941844;29;20047;-84
2023/05/14 05:07:51;;;;;;;0.40;0.40;;;;;;;13.31;50.12;99876.81;4968040;28;20513;-84
2023/05/14 05:10:18;;;;;;;0.50;0.50;;;;;;;13.59;50.04;99890.34;4961917;28;20048;-85
2023/05/14 05:12:45;;;;;;;0.40;0.40;;;;;;;13.73;50.09;99888.19;4942983;28;20055;-86
2023/05/14 05:15:12;;;;;;;0.50;0.50;;;;;;;13.92;49.39;99893.38;4939713;29;20047;-84
2023/05/14 05:29:03;;;;;;;0.50;0.50;;;;;;;14.27;48.15;99879.59;5730901;23;20445;-86
2023/05/14 05:31:30;;;;;;;0.50;0.50;;;;;;;14.45;47.81;99894.78;4923272;29;20082;-85
2023/05/14 05:33:58;;;;;;;0.50;0.50;;;;;;;14.51;47.48;99904.69;4901937;29;20070;-84
2023/05/14 05:36:26;;;;;;;0.50;0.50;;;;;;;14.49;47.13;99890.53;4914283;29;20047;-85
2023/05/14 05:38:54;;;;;;;0.50;0.50;;;;;;;14.61;47.14;99904.00;4907498;29;20052;-83
2023/05/14 05:41:22;;;;;;;0.45;0.45;;;;;;;14.73;47.41;99897.41;4908296;29;20051;-81
2023/05/14 05:46:58;;;;;;;0.40;0.40;;;;;;;15.02;47.03;99896.47;4984443;23;20131;-84
2023/05/14 05:49:26;;;;;;;0.40;0.40;;;;;;;14.99;46.58;99877.91;4925136;29;20524;-83
2023/05/14 05:51:53;;;;;;;0.40;0.40;;;;;;;14.90;46.77;99896.56;4580451;28;10000774;-82
2023/05/14 05:54:24;;;;;;;0.40;0.40;;;;;;;14.87;46.75;99886.19;4907170;29;20070;-82
2023/05/14 05:56:51;;;;;;;0.45;0.45;;;;;;;14.81;46.81;99892.63;4945737;28;20044;-82
2023/05/14 05:59:18;;;;;;;0.40;0.40;;;;;;;14.70;46.42;99895.19;4935800;29;20054;-83
2023/05/14 06:01:46;;;;;;;0.50;0.50;;;;;;;14.68;46.17;99886.47;4946400;29;20070;-81
2023/05/14 06:04:14;;;;;;;0.40;0.40;;;;;;;14.68;45.70;99891.91;4924250;29;20055;-82
2023/05/14 06:06:41;;;;;;;0.50;0.50;;;;;;;14.72;46.01;99884.09;4894171;29;20106;-84
2023/05/14 06:09:08;;;;;;;0.40;0.40;;;;;;;14.79;45.58;99882.03;4904000;29;21117;-85
2023/05/14 06:11:57;;;;;;;0.50;0.50;;;;;;;14.78;45.46;99865.97;4907808;29;20494;-83
2023/05/14 06:14:24;;;;;;;0.40;0.40;;;;;;;15.03;45.69;99888.03;4919502;29;20055;-85
2023/05/14 06:16:53;;;;;;;0.40;0.40;;;;;;;15.17;44.54;99889.31;4905341;29;20201;-83
2023/05/14 06:19:23;;;;;;;0.40;0.40;;;;;;;15.18;44.79;99885.50;4914845;29;20099;-83
2023/05/14 06:21:51;;;;;;;0.40;0.40;;;;;;;15.29;45.10;99888.34;4930764;29;20075;-83
2023/05/14 06:24:19;;;;;;;0.40;0.40;;;;;;;15.39;45.15;99889.31;4899348;29;20048;-82
2023/05/14 06:26:47;;;;;;;0.40;0.40;;;;;;;15.49;43.86;99883.13;4884083;29;20430;-84
2023/05/14 06:29:16;;;;;;;0.40;0.40;;;;;;;15.48;43.88;99880.69;4884096;29;20052;-84
2023/05/14 06:31:44;;;;;;;0.40;0.40;;;;;;;15.54;43.21;99880.47;4916383;29;20076;-82
2023/05/14 06:34:11;;;;;;;0.40;0.40;;;;;;;15.59;42.98;99879.72;4883943;29;20141;-81
2023/05/14 06:36:39;;;;;;;0.40;0.40;;;;;;;15.46;43.01;99863.78;4926146;29;20558;-82
2023/05/14 06:39:13;;;;;;;0.40;0.40;;;;;;;15.64;43.10;99885.19;4916323;29;20115;-85
2023/05/14 06:41:41;;;;;;;0.40;0.40;;;;;;;15.82;42.24;99881.31;4885259;29;20108;-83
2023/05/14 06:54:23;;;;;;;0.40;0.40;;;;;;;16.58;40.30;99883.84;4996091;23;20071;-83
2023/05/14 06:57:16;;;;;;;0.50;0.50;;;;;;;17.08;40.04;99892.59;4918093;29;20531;-83
2023/05/14 06:59:43;;;;;;;0.50;0.50;;;;;;;17.51;38.87;99890.56;4901197;29;20055;-83
2023/05/14 07:02:12;;;;;;;0.40;0.40;;;;;;;17.68;37.92;99874.78;4910284;29;20174;-84
2023/05/14 07:04:39;;;;;;;0.40;0.40;;;;;;;17.55;38.24;99891.69;4932169;29;20052;-84
2023/05/14 07:07:09;;;;;;;0.40;0.40;;;;;;;17.27;38.08;99893.78;4926384;29;20360;-84
2023/05/14 07:10:01;;;;;;;0.40;0.40;;;;;;;17.17;38.16;99899.19;5000854;23;20060;-85
2023/05/14 07:12:30;;;;;;;0.40;0.40;;;;;;;16.87;38.10;99892.50;4893161;29;20135;-81
2023/05/14 07:14:57;;;;;;;0.40;0.40;;;;;;;16.65;38.26;99897.25;4906438;29;20052;-86
2023/05/14 07:17:24;;;;;;;0.40;0.40;;;;;;;16.67;38.08;99893.16;4905302;29;20054;-83
2023/05/14 07:19:54;;;;;;;0.38;0.38;;;;;;;16.69;37.66;99909.28;4907352;29;20137;-82
2023/05/14 07:22:22;;;;;;;0.40;0.40;;;;;;;16.62;37.80;99911.41;4896049;29;20048;-83
2023/05/14 07:24:49;;;;;;;0.40;0.40;;;;;;;16.63;38.18;99918.47;4895121;29;20082;-84
2023/05/14 07:27:16;;;;;;;0.40;0.40;;;;;;;16.63;37.82;99902.94;4897103;29;20058;-85
2023/05/14 07:29:43;;;;;;;0.40;0.40;;;;;;;16.62;38.09;99906.75;4897098;23;20546;-87
2023/05/14 07:32:10;;;;;;;0.40;0.40;;;;;;;16.66;38.26;99909.78;4894743;29;20060;-85
2023/05/14 07:34:42;;;;;;;0.40;0.40;;;;;;;16.74;38.04;99925.66;4895730;29;20084;-85
2023/05/14 07:37:13;;;;;;;0.30;0.30;;;;;;;16.71;37.85;99915.28;4902076;29;20045;-84
2023/05/14 07:39:40;;;;;;;0.40;0.40;;;;;;;17.14;37.04;99913.34;4910720;29;20049;-85
2023/05/14 07:42:07;;;;;;;0.50;0.50;;;;;;;17.14;36.74;99921.53;4892746;29;20076;-84
2023/05/14 07:44:35;;;;;;;0.40;0.40;;;;;;;17.05;36.89;99917.69;4879477;29;20055;-86
2023/05/14 07:47:03;;;;;;;0.47;0.47;;;;;;;17.08;37.03;99920.69;4895635;29;20066;-84
2023/05/14 07:49:33;;;;;;;0.50;0.50;;;;;;;17.71;36.10;99917.91;4885748;29;20112;-84
2023/05/14 07:52:03;;;;;;;0.50;0.50;;;;;;;18.19;34.56;99918.56;4885522;29;20098;-86
2023/05/14 07:54:30;;;;;;;0.60;0.60;;;;;;;19.00;33.80;99910.56;4888309;29;20139;-89
2023/05/14 07:56:57;;;;;;;0.40;0.40;;;;;;;19.05;33.73;99916.03;4889618;29;20077;-84
2023/05/14 07:59:30;;;;;;;0.40;0.40;;;;;;;18.83;33.72;99921.81;4866361;29;20061;-85
2023/05/14 08:01:57;;;;;;;0.40;0.40;;;;;;;18.46;33.92;99901.09;4860823;29;20064;-84
2023/05/14 08:04:53;;;;;;;0.35;0.35;;;;;;;18.29;34.03;99925.13;4885321;29;20052;-86
2023/05/14 08:07:20;;;;;;;0.40;0.40;;;;;;;17.85;34.49;99926.47;4878934;29;20141;-84
2023/05/14 08:09:47;;;;;;;0.40;0.40;;;;;;;17.53;34.59;99918.41;4892723;29;20049;-86
2023/05/14 08:12:15;;;;;;;0.40;0.40;;;;;;;17.64;34.44;99928.25;4909547;29;20155;-84
2023/05/14 08:14:42;;;;;;;0.40;0.40;;;;;;;17.71;34.77;99928.84;4877469;29;20103;-85
2023/05/14 08:17:10;;;;;;;0.40;0.40;;;;;;;17.96;34.38;99925.38;4888355;29;20057;-83
2023/05/14 08:19:37;;;;;;;0.40;0.40;;;;;;;18.27;34.11;99919.13;4880859;29;20068;-87
2023/05/14 08:22:04;;;;;;;0.50;0.50;;;;;;;18.36;33.34;99906.56;4883470;29;20067;-86
2023/05/14 08:24:31;;;;;;;0.47;0.47;;;;;;;18.59;32.98;99907.91;4884222;29;20048;-85
2023/05/14 08:26:59;;;;;;;0.40;0.40;;;;;;;18.86;33.19;99920.44;4870126;29;20056;-85
2023/05/14 08:29:26;;;;;;;0.40;0.40;;;;;;;18.94;32.73;99917.97;4871319;29;20436;-85
2023/05/14 08:31:54;;;;;;;0.40;0.40;;;;;;;19.11;32.78;99922.28;4888082;29;20068;-85
2023/05/14 08:34:21;;;;;;;0.40;0.40;;;;;;;18.95;32.75;99916.06;4888581;29;20063;-85
2023/05/14 08:36:51;;;;;;;0.40;0.40;;;;;;;18.83;32.57;99910.88;4826260;29;20054;-85
2023/05/14 08:39:18;;;;;;;0.40;0.40;;;;;;;18.88;32.74;99919.06;4830955;29;20061;-85
2023/05/14 09:11:44;;;;;;;0.60;0.60;;;;;;;20.04;30.42;99901.56;4663263;30;20061;-84
2023/05/14 09:58:41;;;;;;;0.40;0.40;;;;;;;19.70;32.16;99897.69;4730489;30;20206;-85
2023/05/14 10:01:09;;;;;;;0.40;0.40;;;;;;;19.70;30.97;99907.84;4388796;30;10000275;-82
2023/05/14 10:03:39;;;;;;;0.40;0.40;;;;;;;19.73;31.87;99904.53;4699661;30;20143;-83
2023/05/14 10:06:12;;;;;;;0.40;0.40;;;;;;;20.09;31.02;99901.53;4713639;30;20061;-86
2023/05/14 10:08:43;;;;;;;0.40;0.40;;;;;;;20.44;30.54;99899.59;4727275;30;20092;-84
2023/05/14 10:11:32;;;;;;;0.40;0.40;;;;;;;20.61;30.71;99890.97;5105825;27;20405;-83
2023/05/14 10:14:07;;;;;;;0.40;0.40;;;;;;;20.44;30.47;99896.88;5087927;28;20079;-84
2023/05/14 10:16:40;;;;;;;0.50;0.50;;;;;;;20.88;30.01;99888.47;5103590;28;20050;-83
2023/05/14 10:19:09;;;;;;;0.40;0.40;;;;;;;20.99;30.07;99894.69;5077524;28;20047;-82
2023/05/14 10:21:39;;;;;;;0.50;0.50;;;;;;;20.73;29.10;99889.44;5104757;28;20857;-82
2023/05/14 10:24:07;;;;;;;0.40;0.40;;;;;;;20.28;29.24;99896.16;5104289;28;20112;-82
2023/05/14 10:26:39;;;;;;;0.40;0.40;;;;;;;20.20;30.11;99894.03;5069685;28;20055;-83
2023/05/14 10:29:10;;;;;;;0.40;0.40;;;;;;;20.37;29.99;99893.63;5078570;28;20088;-84
2023/05/14 10:31:47;;;;;;;0.38;0.38;;;;;;;20.55;29.99;99874.56;5085182;28;20047;-86
2023/05/14 10:34:30;;;;;;;0.30;0.30;;;;;;;20.19;30.30;99895.97;5050576;28;20048;-86
2023/05/14 10:37:37;;;;;;;0.30;0.30;;;;;;;19.74;31.22;99899.84;5102088;28;20514;-85
2023/05/14 10:40:08;;;;;;;0.30;0.30;;;;;;;19.53;30.98;99885.44;5019270;28;20063;-86
2023/05/14 10:42:42;;;;;;;0.40;0.40;;;;;;;19.51;31.33;99888.44;5006701;28;20046;-85
2023/05/14 10:45:14;;;;;;;0.40;0.40;;;;;;;19.42;31.22;99893.72;5004935;28;20049;-85
2023/05/14 10:47:57;;;;;;;0.40;0.40;;;;;;;19.31;31.22;99872.13;4974151;28;20112;-86
2023/05/14 10:50:28;;;;;;;0.40;0.40;;;;;;;19.64;30.80;99884.28;4990540;28;20055;-85
2023/05/14 10:52:56;;;;;;;1.00;1.00;;;;;;;20.67;29.75;99882.41;5030667;28;20076;-86
2023/05/14 10:58:34;;;;;;;0.30;0.30;;;;;;;20.13;30.13;99872.47;5008919;28;21207;-86
2023/05/14 11:01:06;;;;;;;0.30;0.30;;;;;;;19.71;30.76;99862.91;5026726;28;20211;-85
2023/05/14 11:03:41;;;;;;;0.30;0.30;;;;;;;19.58;31.44;99880.75;5050529;28;20060;-85
2023/05/14 11:06:10;;;;;;;0.30;0.30;;;;;;;19.63;31.37;99885.38;5044442;28;20462;-86
2023/05/14 11:08:37;;;;;;;0.30;0.30;;;;;;;19.54;30.85;99884.34;5044875;28;20076;-85
2023/05/14 11:11:14;;;;;;;0.30;0.30;;;;;;;19.36;30.92;99883.06;5080281;28;20112;-86
2023/05/14 11:13:41;;;;;;;0.40;0.40;;;;;;;19.35;30.76;99870.50;5117893;28;20093;-85
2023/05/14 11:16:09;;;;;;;0.40;0.40;;;;;;;19.47;30.96;99860.84;5110188;28;20047;-86
2023/05/14 11:18:40;;;;;;;0.30;0.30;;;;;;;19.67;31.17;99870.88;5110492;28;20482;-86
2023/05/14 11:21:08;;;;;;;0.40;0.40;;;;;;;19.32;31.59;99885.56;5088118;28;20047;-86
2023/05/14 11:23:35;;;;;;;0.40;0.40;;;;;;;19.31;31.51;99883.91;5089831;28;20047;-85
2023/05/14 11:26:02;;;;;;;0.30;0.30;;;;;;;19.11;31.71;99884.81;5096706;28;20047;-86
2023/05/14 11:28:32;;;;;;;0.40;0.40;;;;;;;18.56;32.27;99865.53;5072213;28;20077;-86
2023/05/14 11:30:59;;;;;;;0.30;0.30;;;;;;;18.40;32.14;99866.63;5086596;28;20059;-86
2023/05/14 11:33:30;;;;;;;0.40;0.40;;;;;;;18.69;32.72;99888.75;5061638;28;20143;-85
2023/05/14 11:35:57;;;;;;;0.40;0.40;;;;;;;18.72;31.50;99849.91;5083508;28;20154;-85
2023/05/14 11:38:24;;;;;;;0.40;0.40;;;;;;;18.76;32.52;99869.31;5101035;28;20048;-86
2023/05/14 11:40:53;;;;;;;0.50;0.50;;;;;;;19.44;30.77;99866.84;5098524;28;20076;-84
2023/05/14 11:43:23;;;;;;;0.50;0.50;;;;;;;19.63;30.57;99855.28;5113239;28;20057;-86
2023/05/14 11:45:56;;;;;;;0.43;0.43;;;;;;;19.95;30.97;99853.97;5094706;28;20561;-85
2023/05/14 11:48:24;;;;;;;0.30;0.30;;;;;;;20.28;30.81;99864.13;5113760;28;20113;-85
2023/05/14 11:50:54;;;;;;;0.30;0.30;;;;;;;19.95;31.11;99864.91;5095208;28;20059;-86
2023/05/14 11:53:27;;;;;;;0.30;0.30;;;;;;;19.66;31.57;99868.38;5095875;28;20143;-86
2023/05/14 11:55:54;;;;;;;0.30;0.30;;;;;;;19.45;31.87;99871.25;5113270;28;20134;-86
2023/05/14 11:58:21;;;;;;;0.30;0.30;;;;;;;19.25;32.07;99874.09;5094535;28;20143;-88
2023/05/14 12:00:52;;;;;;;0.30;0.30;;;;;;;19.27;32.42;99877.38;5109605;28;20044;-87
2023/05/14 12:03:24;;;;;;;0.30;0.30;;;;;;;18.97;32.28;99867.38;5099819;28;20052;-83
2023/05/14 12:06:00;;;;;;;0.40;0.40;;;;;;;18.66;32.27;99883.00;5092617;28;20067;-85
2023/05/14 12:08:31;;;;;;;0.30;0.30;;;;;;;18.41;32.79;99879.22;5099786;28;20043;-86
2023/05/14 12:11:01;;;;;;;0.30;0.30;;;;;;;18.03;33.43;99873.22;5096039;28;20055;-85
2023/05/14 12:16:19;;;;;;;0.40;0.40;;;;;;;18.36;33.39;99871.03;5089811;28;20097;-84
2023/05/14 12:18:49;;;;;;;0.30;0.30;;;;;;;18.47;33.14;99858.16;5095546;28;20142;-88
2023/05/14 12:21:18;;;;;;;0.40;0.40;;;;;;;18.49;33.55;99869.66;5076524;28;20044;-83
2023/05/14 12:24:15;;;;;;;0.40;0.40;;;;;;;18.62;33.86;99872.63;5077243;28;20055;-85
2023/05/14 12:26:50;;;;;;;0.40;0.40;;;;;;;18.47;33.51;99867.19;5112308;28;20048;-85
2023/05/14 12:29:20;;;;;;;0.30;0.30;;;;;;;18.49;33.60;99878.66;5081250;28;20054;-82
2023/05/14 12:31:54;;;;;;;0.40;0.40;;;;;;;18.60;33.40;99860.31;5101838;28;20395;-84
2023/05/14 12:34:22;;;;;;;0.30;0.30;;;;;;;18.74;33.35;99855.09;5059154;28;20047;-84
2023/05/14 12:36:49;;;;;;;0.40;0.40;;;;;;;18.67;33.13;99851.84;5074766;28;20661;-84
2023/05/14 12:39:16;;;;;;;0.40;0.40;;;;;;;18.84;32.88;99871.50;5083392;28;20509;-83
2023/05/14 12:41:43;;;;;;;0.40;0.40;;;;;;;19.05;33.19;99877.72;5112954;28;20057;-84
2023/05/14 12:44:14;;;;;;;0.30;0.30;;;;;;;19.25;32.59;99874.91;5103252;28;20047;-82
2023/05/14 12:46:42;;;;;;;0.30;0.30;;;;;;;19.33;32.41;99864.47;5094557;28;20047;-83
2023/05/14 12:49:09;;;;;;;0.40;0.40;;;;;;;19.31;32.06;99864.75;5062539;28;20521;-83
2023/05/14 12:51:37;;;;;;;0.40;0.40;;;;;;;19.44;31.43;99866.84;5102929;28;20051;-84
2023/05/14 12:54:04;;;;;;;0.40;0.40;;;;;;;19.68;31.21;99877.16;5112249;28;20043;-83
2023/05/14 12:56:32;;;;;;;0.40;0.40;;;;;;;19.79;31.07;99856.00;5061492;28;20054;-84
2023/05/14 12:59:00;;;;;;;0.40;0.40;;;;;;;19.83;30.85;99843.38;5113581;28;20505;-83
2023/05/14 13:01:30;;;;;;;0.40;0.40;;;;;;;19.86;30.44;99862.78;5099492;28;20048;-85
2023/05/14 13:03:59;;;;;;;0.30;0.30;;;;;;;20.00;30.46;99856.66;5064348;28;20104;-85
2023/05/14 13:06:28;;;;;;;0.40;0.40;;;;;;;20.05;30.25;99860.19;5093271;28;20048;-85
2023/05/14 13:09:01;;;;;;;0.40;0.40;;;;;;;20.11;30.34;99858.22;5111667;28;20071;-83
2023/05/14 13:11:30;;;;;;;0.40;0.40;;;;;;;20.13;30.68;99856.84;5112605;28;20043;-88
2023/05/14 13:13:58;;;;;;;0.40;0.40;;;;;;;19.94;31.10;99855.06;5070839;28;20047;-87
2023/05/14 13:16:26;;;;;;;0.30;0.30;;;;;;;20.10;30.87;99851.09;5060730;28;20051;-84
2023/05/14 13:18:57;;;;;;;0.30;0.30;;;;;;;19.96;30.87;99856.44;5075000;28;20525;-86
2023/05/14 13:21:25;;;;;;;0.35;0.35;;;;;;;19.73;31.17;99857.97;5075885;28;20052;-86
2023/05/14 13:23:52;;;;;;;0.30;0.30;;;;;;;19.52;31.07;99850.94;5039935;28;20040;-85
2023/05/14 13:26:20;;;;;;;0.30;0.30;;;;;;;19.41;31.62;99861.13;5079291;28;20573;-86
2023/05/14 13:28:48;;;;;;;0.30;0.30;;;;;;;19.17;31.86;99858.25;5057200;28;20048;-86
2023/05/14 13:31:16;;;;;;;0.30;0.30;;;;;;;18.93;32.24;99842.47;5055036;28;20055;-86
2023/05/14 13:33:46;;;;;;;0.30;0.30;;;;;;;18.94;32.50;99857.81;5041390;28;20048;-85
2023/05/14 13:36:14;;;;;;;0.30;0.30;;;;;;;18.84;32.25;99857.84;5037449;28;20044;-85
2023/05/14 13:38:42;;;;;;;0.30;0.30;;;;;;;18.84;32.87;99855.09;5054577;28;20142;-86
2023/05/14 13:41:09;;;;;;;0.30;0.30;;;;;;;18.83;32.93;99867.13;5054544;28;20044;-87